sensor_id;sensor_type;location;lat;lon;timestamp;P1;durP1;ratioP1;P2;durP2;ratioP2
24030;SDS011;12240;51.142;22.486;2023-09-19T00:02:03;11.10;;;5.93;;
24030;SDS011;12240;51.142;22.486;2023-09-19T00:04:36;15.25;;;5.80;;
24030;SDS011;12240;51.142;22.486;2023-09-19T00:07:07;10.02;;;5.32;;
24030;SDS011;12240;51.142;22.486;2023-09-19T00:09:37;16.02;;;5.70;;
24030;SDS011;12240;51.142;22.486;2023-09-19T00:12:05;10.23;;;5.50;;
24030;SDS011;12240;51.142;22.486;2023-09-19T00:14:36;12.50;;;5.40;;
24030;SDS011;12240;51.142;22.486;2023-09-19T00:17:04;14.60;;;5.45;;
24030;SDS011;12240;51.142;22.486;2023-09-19T00:19:35;12.98;;;5.55;;
24030;SDS011;12240;51.142;22.486;2023-09-19T00:22:04;11.98;;;5.93;;
24030;SDS011;12240;51.142;22.486;2023-09-19T00:24:32;11.00;;;5.70;;
24030;SDS011;12240;51.142;22.486;2023-09-19T00:27:01;12.35;;;5.85;;
24030;SDS011;12240;51.142;22.486;2023-09-19T00:29:29;9.38;;;5.47;;
24030;SDS011;12240;51.142;22.486;2023-09-19T00:31:58;10.85;;;5.97;;
24030;SDS011;12240;51.142;22.486;2023-09-19T00:34:28;12.20;;;6.20;;
24030;SDS011;12240;51.142;22.486;2023-09-19T00:36:57;9.30;;;5.47;;
24030;SDS011;12240;51.142;22.486;2023-09-19T00:39:26;10.02;;;5.70;;
24030;SDS011;12240;51.142;22.486;2023-09-19T00:41:59;13.45;;;5.90;;
24030;SDS011;12240;51.142;22.486;2023-09-19T00:44:32;12.40;;;5.93;;
24030;SDS011;12240;51.142;22.486;2023-09-19T00:47:02;13.88;;;6.45;;
24030;SDS011;12240;51.142;22.486;2023-09-19T00:49:32;11.93;;;6.13;;
24030;SDS011;12240;51.142;22.486;2023-09-19T00:52:00;11.27;;;5.68;;
24030;SDS011;12240;51.142;22.486;2023-09-19T00:57:01;14.05;;;6.57;;
24030;SDS011;12240;51.142;22.486;2023-09-19T00:59:29;14.05;;;6.53;;
24030;SDS011;12240;51.142;22.486;2023-09-19T01:01:57;12.63;;;6.15;;
24030;SDS011;12240;51.142;22.486;2023-09-19T01:04:27;13.27;;;6.43;;
24030;SDS011;12240;51.142;22.486;2023-09-19T01:06:57;12.88;;;6.60;;
24030;SDS011;12240;51.142;22.486;2023-09-19T01:09:25;13.02;;;6.40;;
24030;SDS011;12240;51.142;22.486;2023-09-19T01:11:55;12.32;;;6.25;;
24030;SDS011;12240;51.142;22.486;2023-09-19T01:14:52;12.27;;;6.57;;
24030;SDS011;12240;51.142;22.486;2023-09-19T01:17:30;11.85;;;6.28;;
24030;SDS011;12240;51.142;22.486;2023-09-19T01:20:10;17.88;;;6.22;;
24030;SDS011;12240;51.142;22.486;2023-09-19T01:23:25;15.88;;;6.63;;
24030;SDS011;12240;51.142;22.486;2023-09-19T01:26:51;14.05;;;5.68;;
24030;SDS011;12240;51.142;22.486;2023-09-19T01:30:00;14.30;;;6.38;;
24030;SDS011;12240;51.142;22.486;2023-09-19T01:32:41;14.38;;;6.70;;
24030;SDS011;12240;51.142;22.486;2023-09-19T01:35:10;16.23;;;7.05;;
24030;SDS011;12240;51.142;22.486;2023-09-19T01:37:40;12.82;;;6.50;;
24030;SDS011;12240;51.142;22.486;2023-09-19T01:40:15;14.13;;;6.85;;
24030;SDS011;12240;51.142;22.486;2023-09-19T01:42:56;15.13;;;6.75;;
24030;SDS011;12240;51.142;22.486;2023-09-19T01:52:09;14.70;;;7.38;;
24030;SDS011;12240;51.142;22.486;2023-09-19T01:54:48;11.85;;;6.95;;
24030;SDS011;12240;51.142;22.486;2023-09-19T01:57:29;12.30;;;6.38;;
24030;SDS011;12240;51.142;22.486;2023-09-19T02:00:10;15.88;;;7.00;;
24030;SDS011;12240;51.142;22.486;2023-09-19T02:02:45;13.25;;;6.50;;
24030;SDS011;12240;51.142;22.486;2023-09-19T02:05:22;12.77;;;6.80;;
24030;SDS011;12240;51.142;22.486;2023-09-19T02:07:55;17.27;;;7.35;;
24030;SDS011;12240;51.142;22.486;2023-09-19T02:10:26;15.73;;;6.88;;
24030;SDS011;12240;51.142;22.486;2023-09-19T02:12:54;13.80;;;7.50;;
24030;SDS011;12240;51.142;22.486;2023-09-19T02:15:23;12.25;;;6.53;;
24030;SDS011;12240;51.142;22.486;2023-09-19T02:17:51;15.00;;;6.90;;
24030;SDS011;12240;51.142;22.486;2023-09-19T02:20:21;14.90;;;6.63;;
24030;SDS011;12240;51.142;22.486;2023-09-19T02:22:49;13.77;;;7.20;;
24030;SDS011;12240;51.142;22.486;2023-09-19T02:25:17;19.08;;;7.65;;
24030;SDS011;12240;51.142;22.486;2023-09-19T02:27:47;14.52;;;7.00;;
24030;SDS011;12240;51.142;22.486;2023-09-19T02:30:15;13.93;;;6.63;;
24030;SDS011;12240;51.142;22.486;2023-09-19T02:32:43;13.38;;;6.82;;
24030;SDS011;12240;51.142;22.486;2023-09-19T02:35:12;11.25;;;6.47;;
24030;SDS011;12240;51.142;22.486;2023-09-19T02:37:41;13.65;;;7.07;;
24030;SDS011;12240;51.142;22.486;2023-09-19T02:40:10;12.02;;;6.63;;
24030;SDS011;12240;51.142;22.486;2023-09-19T02:42:49;14.18;;;7.05;;
24030;SDS011;12240;51.142;22.486;2023-09-19T02:45:23;15.77;;;6.85;;
24030;SDS011;12240;51.142;22.486;2023-09-19T02:47:51;15.63;;;6.97;;
24030;SDS011;12240;51.142;22.486;2023-09-19T02:50:19;14.27;;;7.07;;
24030;SDS011;12240;51.142;22.486;2023-09-19T02:52:47;13.88;;;6.93;;
24030;SDS011;12240;51.142;22.486;2023-09-19T02:55:16;12.40;;;6.85;;
24030;SDS011;12240;51.142;22.486;2023-09-19T02:57:46;11.68;;;6.35;;
24030;SDS011;12240;51.142;22.486;2023-09-19T03:00:16;12.52;;;6.18;;
24030;SDS011;12240;51.142;22.486;2023-09-19T03:02:50;14.07;;;6.22;;
24030;SDS011;12240;51.142;22.486;2023-09-19T03:05:21;12.82;;;6.25;;
24030;SDS011;12240;51.142;22.486;2023-09-19T03:07:52;13.02;;;5.72;;
24030;SDS011;12240;51.142;22.486;2023-09-19T03:10:21;13.90;;;6.75;;
24030;SDS011;12240;51.142;22.486;2023-09-19T03:12:51;13.07;;;6.15;;
24030;SDS011;12240;51.142;22.486;2023-09-19T03:15:19;15.85;;;6.60;;
24030;SDS011;12240;51.142;22.486;2023-09-19T03:17:51;13.40;;;6.10;;
24030;SDS011;12240;51.142;22.486;2023-09-19T03:20:24;12.68;;;5.97;;
24030;SDS011;12240;51.142;22.486;2023-09-19T03:22:54;12.27;;;5.90;;
24030;SDS011;12240;51.142;22.486;2023-09-19T03:25:22;12.82;;;5.82;;
24030;SDS011;12240;51.142;22.486;2023-09-19T03:27:53;10.25;;;5.95;;
24030;SDS011;12240;51.142;22.486;2023-09-19T03:30:25;11.55;;;5.65;;
24030;SDS011;12240;51.142;22.486;2023-09-19T03:32:54;16.15;;;6.70;;
24030;SDS011;12240;51.142;22.486;2023-09-19T03:35:22;9.82;;;5.63;;
24030;SDS011;12240;51.142;22.486;2023-09-19T03:37:50;12.85;;;5.85;;
24030;SDS011;12240;51.142;22.486;2023-09-19T03:40:20;10.20;;;6.05;;
24030;SDS011;12240;51.142;22.486;2023-09-19T03:42:49;13.80;;;6.20;;
24030;SDS011;12240;51.142;22.486;2023-09-19T03:45:18;12.50;;;6.00;;
24030;SDS011;12240;51.142;22.486;2023-09-19T03:47:51;11.32;;;5.80;;
24030;SDS011;12240;51.142;22.486;2023-09-19T03:50:23;14.18;;;6.20;;
24030;SDS011;12240;51.142;22.486;2023-09-19T03:52:56;10.93;;;5.97;;
24030;SDS011;12240;51.142;22.486;2023-09-19T03:55:25;11.23;;;5.97;;
24030;SDS011;12240;51.142;22.486;2023-09-19T03:57:54;10.85;;;6.07;;
24030;SDS011;12240;51.142;22.486;2023-09-19T04:00:22;10.73;;;5.93;;
24030;SDS011;12240;51.142;22.486;2023-09-19T04:02:53;10.63;;;5.32;;
24030;SDS011;12240;51.142;22.486;2023-09-19T04:05:24;13.45;;;6.60;;
24030;SDS011;12240;51.142;22.486;2023-09-19T04:07:52;12.93;;;5.65;;
24030;SDS011;12240;51.142;22.486;2023-09-19T04:10:21;9.38;;;5.53;;
24030;SDS011;12240;51.142;22.486;2023-09-19T04:12:52;14.02;;;5.80;;
24030;SDS011;12240;51.142;22.486;2023-09-19T04:15:23;14.85;;;6.18;;
24030;SDS011;12240;51.142;22.486;2023-09-19T04:20:22;9.82;;;5.82;;
24030;SDS011;12240;51.142;22.486;2023-09-19T04:22:51;10.65;;;6.05;;
24030;SDS011;12240;51.142;22.486;2023-09-19T04:25:19;11.85;;;5.90;;
24030;SDS011;12240;51.142;22.486;2023-09-19T04:27:48;12.32;;;6.13;;
24030;SDS011;12240;51.142;22.486;2023-09-19T04:30:17;9.95;;;5.32;;
24030;SDS011;12240;51.142;22.486;2023-09-19T04:32:45;11.40;;;5.15;;
24030;SDS011;12240;51.142;22.486;2023-09-19T04:35:19;13.27;;;5.60;;
24030;SDS011;12240;51.142;22.486;2023-09-19T04:37:47;11.68;;;5.82;;
24030;SDS011;12240;51.142;22.486;2023-09-19T04:40:15;9.73;;;5.28;;
24030;SDS011;12240;51.142;22.486;2023-09-19T04:42:52;14.70;;;5.90;;
24030;SDS011;12240;51.142;22.486;2023-09-19T04:45:25;9.93;;;5.60;;
24030;SDS011;12240;51.142;22.486;2023-09-19T04:47:54;11.02;;;6.03;;
24030;SDS011;12240;51.142;22.486;2023-09-19T04:50:23;13.57;;;6.13;;
24030;SDS011;12240;51.142;22.486;2023-09-19T04:52:55;9.00;;;5.95;;
24030;SDS011;12240;51.142;22.486;2023-09-19T04:55:23;11.20;;;5.88;;
24030;SDS011;12240;51.142;22.486;2023-09-19T04:57:53;13.18;;;5.70;;
24030;SDS011;12240;51.142;22.486;2023-09-19T05:00:22;11.77;;;6.05;;
24030;SDS011;12240;51.142;22.486;2023-09-19T05:02:52;10.13;;;5.78;;
24030;SDS011;12240;51.142;22.486;2023-09-19T05:05:24;12.15;;;5.93;;
24030;SDS011;12240;51.142;22.486;2023-09-19T05:07:53;13.88;;;6.50;;
24030;SDS011;12240;51.142;22.486;2023-09-19T05:10:21;15.05;;;6.50;;
24030;SDS011;12240;51.142;22.486;2023-09-19T05:12:52;11.80;;;5.95;;
24030;SDS011;12240;51.142;22.486;2023-09-19T05:15:21;12.57;;;6.18;;
24030;SDS011;12240;51.142;22.486;2023-09-19T05:17:50;16.55;;;6.97;;
24030;SDS011;12240;51.142;22.486;2023-09-19T05:20:25;11.10;;;6.18;;
24030;SDS011;12240;51.142;22.486;2023-09-19T05:23:09;13.73;;;6.03;;
24030;SDS011;12240;51.142;22.486;2023-09-19T05:25:40;15.82;;;6.07;;
24030;SDS011;12240;51.142;22.486;2023-09-19T05:28:10;15.43;;;5.65;;
24030;SDS011;12240;51.142;22.486;2023-09-19T05:30:43;8.40;;;5.10;;
24030;SDS011;12240;51.142;22.486;2023-09-19T05:33:15;16.92;;;6.03;;
24030;SDS011;12240;51.142;22.486;2023-09-19T05:35:45;11.60;;;5.97;;
24030;SDS011;12240;51.142;22.486;2023-09-19T05:38:15;15.30;;;5.95;;
24030;SDS011;12240;51.142;22.486;2023-09-19T05:40:46;9.20;;;5.15;;
24030;SDS011;12240;51.142;22.486;2023-09-19T05:43:14;10.05;;;5.20;;
24030;SDS011;12240;51.142;22.486;2023-09-19T05:45:43;8.13;;;4.97;;
24030;SDS011;12240;51.142;22.486;2023-09-19T05:48:13;11.98;;;5.28;;
24030;SDS011;12240;51.142;22.486;2023-09-19T05:53:15;15.00;;;5.65;;
24030;SDS011;12240;51.142;22.486;2023-09-19T05:55:46;10.88;;;5.07;;
24030;SDS011;12240;51.142;22.486;2023-09-19T05:58:14;10.70;;;5.38;;
24030;SDS011;12240;51.142;22.486;2023-09-19T06:00:45;11.50;;;5.05;;
24030;SDS011;12240;51.142;22.486;2023-09-19T06:03:16;11.60;;;5.53;;
24030;SDS011;12240;51.142;22.486;2023-09-19T06:05:46;13.10;;;5.60;;
24030;SDS011;12240;51.142;22.486;2023-09-19T06:10:46;9.70;;;4.85;;
24030;SDS011;12240;51.142;22.486;2023-09-19T06:13:14;10.77;;;4.72;;
24030;SDS011;12240;51.142;22.486;2023-09-19T06:15:42;11.13;;;5.75;;
24030;SDS011;12240;51.142;22.486;2023-09-19T06:18:11;9.32;;;4.65;;
24030;SDS011;12240;51.142;22.486;2023-09-19T06:20:45;8.07;;;4.57;;
24030;SDS011;12240;51.142;22.486;2023-09-19T06:23:14;12.13;;;5.20;;
24030;SDS011;12240;51.142;22.486;2023-09-19T06:25:43;9.45;;;4.85;;
24030;SDS011;12240;51.142;22.486;2023-09-19T06:28:11;9.25;;;3.92;;
24030;SDS011;12240;51.142;22.486;2023-09-19T06:30:39;10.60;;;4.75;;
24030;SDS011;12240;51.142;22.486;2023-09-19T06:33:08;8.77;;;4.70;;
24030;SDS011;12240;51.142;22.486;2023-09-19T06:35:39;11.75;;;5.00;;
24030;SDS011;12240;51.142;22.486;2023-09-19T06:38:09;10.15;;;4.80;;
24030;SDS011;12240;51.142;22.486;2023-09-19T06:43:11;9.47;;;4.53;;
24030;SDS011;12240;51.142;22.486;2023-09-19T06:45:39;8.85;;;5.05;;
24030;SDS011;12240;51.142;22.486;2023-09-19T06:48:07;8.02;;;4.28;;
24030;SDS011;12240;51.142;22.486;2023-09-19T06:50:37;9.65;;;4.47;;
24030;SDS011;12240;51.142;22.486;2023-09-19T06:53:08;7.78;;;4.57;;
24030;SDS011;12240;51.142;22.486;2023-09-19T06:55:37;9.45;;;4.70;;
24030;SDS011;12240;51.142;22.486;2023-09-19T06:58:04;11.82;;;5.40;;
24030;SDS011;12240;51.142;22.486;2023-09-19T07:00:37;7.90;;;4.80;;
24030;SDS011;12240;51.142;22.486;2023-09-19T07:03:07;10.75;;;4.55;;
24030;SDS011;12240;51.142;22.486;2023-09-19T07:05:39;7.38;;;4.53;;
24030;SDS011;12240;51.142;22.486;2023-09-19T07:08:08;9.45;;;4.70;;
24030;SDS011;12240;51.142;22.486;2023-09-19T07:10:40;8.88;;;5.10;;
24030;SDS011;12240;51.142;22.486;2023-09-19T07:13:16;12.48;;;5.28;;
24030;SDS011;12240;51.142;22.486;2023-09-19T07:15:44;11.35;;;5.43;;
24030;SDS011;12240;51.142;22.486;2023-09-19T07:18:17;9.65;;;4.80;;
24030;SDS011;12240;51.142;22.486;2023-09-19T07:20:48;9.90;;;5.13;;
24030;SDS011;12240;51.142;22.486;2023-09-19T07:23:17;9.45;;;4.78;;
24030;SDS011;12240;51.142;22.486;2023-09-19T07:25:49;10.27;;;5.80;;
24030;SDS011;12240;51.142;22.486;2023-09-19T07:28:17;9.40;;;5.28;;
24030;SDS011;12240;51.142;22.486;2023-09-19T07:30:46;12.02;;;5.15;;
24030;SDS011;12240;51.142;22.486;2023-09-19T07:33:14;12.60;;;5.10;;
24030;SDS011;12240;51.142;22.486;2023-09-19T07:35:45;8.48;;;4.75;;
24030;SDS011;12240;51.142;22.486;2023-09-19T07:38:14;10.43;;;4.80;;
24030;SDS011;12240;51.142;22.486;2023-09-19T07:40:42;8.23;;;4.85;;
24030;SDS011;12240;51.142;22.486;2023-09-19T07:43:11;10.05;;;4.88;;
24030;SDS011;12240;51.142;22.486;2023-09-19T07:45:38;9.27;;;5.03;;
24030;SDS011;12240;51.142;22.486;2023-09-19T07:48:07;9.95;;;5.07;;
24030;SDS011;12240;51.142;22.486;2023-09-19T07:50:42;9.32;;;5.03;;
24030;SDS011;12240;51.142;22.486;2023-09-19T07:53:14;9.98;;;5.40;;
24030;SDS011;12240;51.142;22.486;2023-09-19T07:55:44;7.13;;;4.63;;
24030;SDS011;12240;51.142;22.486;2023-09-19T08:00:44;11.73;;;4.75;;
24030;SDS011;12240;51.142;22.486;2023-09-19T08:03:13;11.82;;;4.95;;
24030;SDS011;12240;51.142;22.486;2023-09-19T08:05:44;12.60;;;5.88;;
24030;SDS011;12240;51.142;22.486;2023-09-19T08:08:13;9.63;;;5.22;;
24030;SDS011;12240;51.142;22.486;2023-09-19T08:10:42;10.43;;;5.32;;
24030;SDS011;12240;51.142;22.486;2023-09-19T08:13:14;12.38;;;5.75;;
24030;SDS011;12240;51.142;22.486;2023-09-19T08:15:45;11.90;;;5.40;;
24030;SDS011;12240;51.142;22.486;2023-09-19T08:18:14;8.95;;;5.35;;
24030;SDS011;12240;51.142;22.486;2023-09-19T08:20:48;9.82;;;5.63;;
24030;SDS011;12240;51.142;22.486;2023-09-19T08:23:20;10.45;;;5.70;;
24030;SDS011;12240;51.142;22.486;2023-09-19T08:25:48;9.88;;;5.18;;
24030;SDS011;12240;51.142;22.486;2023-09-19T08:28:16;8.10;;;5.40;;
24030;SDS011;12240;51.142;22.486;2023-09-19T08:30:50;11.05;;;5.53;;
24030;SDS011;12240;51.142;22.486;2023-09-19T08:33:18;11.45;;;6.10;;
24030;SDS011;12240;51.142;22.486;2023-09-19T08:35:46;10.68;;;5.45;;
24030;SDS011;12240;51.142;22.486;2023-09-19T08:38:14;10.38;;;5.65;;
24030;SDS011;12240;51.142;22.486;2023-09-19T08:40:43;12.25;;;6.15;;
24030;SDS011;12240;51.142;22.486;2023-09-19T08:43:11;11.48;;;5.53;;
24030;SDS011;12240;51.142;22.486;2023-09-19T08:45:40;15.55;;;6.05;;
24030;SDS011;12240;51.142;22.486;2023-09-19T08:54:21;14.52;;;6.90;;
24030;SDS011;12240;51.142;22.486;2023-09-19T08:56:53;11.32;;;6.15;;
24030;SDS011;12240;51.142;22.486;2023-09-19T08:59:24;11.05;;;6.53;;
24030;SDS011;12240;51.142;22.486;2023-09-19T09:01:53;11.82;;;6.80;;
24030;SDS011;12240;51.142;22.486;2023-09-19T09:04:23;12.50;;;6.00;;
24030;SDS011;12240;51.142;22.486;2023-09-19T09:06:53;15.40;;;6.20;;
24030;SDS011;12240;51.142;22.486;2023-09-19T09:09:22;13.10;;;6.78;;
24030;SDS011;12240;51.142;22.486;2023-09-19T09:11:51;12.15;;;6.68;;
24030;SDS011;12240;51.142;22.486;2023-09-19T09:14:20;15.73;;;6.38;;
24030;SDS011;12240;51.142;22.486;2023-09-19T09:16:48;15.85;;;6.25;;
24030;SDS011;12240;51.142;22.486;2023-09-19T09:19:17;11.40;;;6.40;;
24030;SDS011;12240;51.142;22.486;2023-09-19T09:21:52;12.90;;;6.10;;
24030;SDS011;12240;51.142;22.486;2023-09-19T09:24:26;13.85;;;6.82;;
24030;SDS011;12240;51.142;22.486;2023-09-19T09:27:02;11.97;;;6.30;;
24030;SDS011;12240;51.142;22.486;2023-09-19T09:29:41;10.32;;;5.47;;
24030;SDS011;12240;51.142;22.486;2023-09-19T09:32:34;12.20;;;6.03;;
24030;SDS011;12240;51.142;22.486;2023-09-19T09:35:12;8.88;;;5.20;;
24030;SDS011;12240;51.142;22.486;2023-09-19T09:37:42;10.48;;;5.38;;
24030;SDS011;12240;51.142;22.486;2023-09-19T09:40:11;11.25;;;5.10;;
24030;SDS011;12240;51.142;22.486;2023-09-19T09:42:42;9.75;;;5.60;;
24030;SDS011;12240;51.142;22.486;2023-09-19T09:45:14;11.32;;;5.90;;
24030;SDS011;12240;51.142;22.486;2023-09-19T09:47:56;9.27;;;5.13;;
24030;SDS011;12240;51.142;22.486;2023-09-19T09:50:28;8.93;;;5.25;;
24030;SDS011;12240;51.142;22.486;2023-09-19T09:53:24;10.48;;;4.70;;
24030;SDS011;12240;51.142;22.486;2023-09-19T09:56:00;9.48;;;5.10;;
24030;SDS011;12240;51.142;22.486;2023-09-19T09:58:33;13.13;;;5.18;;
24030;SDS011;12240;51.142;22.486;2023-09-19T10:01:21;11.57;;;4.95;;
24030;SDS011;12240;51.142;22.486;2023-09-19T10:03:57;8.27;;;5.45;;
24030;SDS011;12240;51.142;22.486;2023-09-19T10:06:39;13.45;;;5.25;;
24030;SDS011;12240;51.142;22.486;2023-09-19T10:09:15;9.85;;;5.65;;
24030;SDS011;12240;51.142;22.486;2023-09-19T10:12:03;10.32;;;5.68;;
24030;SDS011;12240;51.142;22.486;2023-09-19T10:14:37;12.88;;;5.28;;
24030;SDS011;12240;51.142;22.486;2023-09-19T10:17:10;10.55;;;5.38;;
24030;SDS011;12240;51.142;22.486;2023-09-19T10:19:45;8.68;;;4.85;;
24030;SDS011;12240;51.142;22.486;2023-09-19T10:22:29;9.82;;;4.80;;
24030;SDS011;12240;51.142;22.486;2023-09-19T10:24:59;9.55;;;4.43;;
24030;SDS011;12240;51.142;22.486;2023-09-19T10:27:30;10.77;;;4.40;;
24030;SDS011;12240;51.142;22.486;2023-09-19T10:30:05;10.13;;;4.63;;
24030;SDS011;12240;51.142;22.486;2023-09-19T10:32:37;8.95;;;4.30;;
24030;SDS011;12240;51.142;22.486;2023-09-19T10:35:09;8.15;;;4.53;;
24030;SDS011;12240;51.142;22.486;2023-09-19T10:37:40;8.43;;;4.18;;
24030;SDS011;12240;51.142;22.486;2023-09-19T10:40:12;6.82;;;3.83;;
24030;SDS011;12240;51.142;22.486;2023-09-19T10:42:43;7.50;;;4.50;;
24030;SDS011;12240;51.142;22.486;2023-09-19T10:45:15;8.68;;;4.38;;
24030;SDS011;12240;51.142;22.486;2023-09-19T10:47:47;6.38;;;4.20;;
24030;SDS011;12240;51.142;22.486;2023-09-19T10:50:21;6.35;;;3.90;;
24030;SDS011;12240;51.142;22.486;2023-09-19T10:52:51;7.32;;;4.15;;
24030;SDS011;12240;51.142;22.486;2023-09-19T10:55:35;7.70;;;4.78;;
24030;SDS011;12240;51.142;22.486;2023-09-19T10:58:04;6.82;;;4.40;;
24030;SDS011;12240;51.142;22.486;2023-09-19T11:00:54;9.50;;;4.70;;
24030;SDS011;12240;51.142;22.486;2023-09-19T11:03:38;8.60;;;4.38;;
24030;SDS011;12240;51.142;22.486;2023-09-19T11:06:16;8.27;;;4.72;;
24030;SDS011;12240;51.142;22.486;2023-09-19T11:11:38;8.27;;;4.50;;
24030;SDS011;12240;51.142;22.486;2023-09-19T11:30:40;11.43;;;5.47;;
24030;SDS011;12240;51.142;22.486;2023-09-19T11:43:53;13.23;;;6.85;;
24030;SDS011;12240;51.142;22.486;2023-09-19T11:49:19;12.90;;;7.55;;
24030;SDS011;12240;51.142;22.486;2023-09-19T11:51:58;14.07;;;7.45;;
24030;SDS011;12240;51.142;22.486;2023-09-19T11:54:36;14.50;;;7.82;;
24030;SDS011;12240;51.142;22.486;2023-09-19T11:57:07;12.40;;;7.43;;
24030;SDS011;12240;51.142;22.486;2023-09-19T11:59:38;14.80;;;8.75;;
24030;SDS011;12240;51.142;22.486;2023-09-19T12:02:07;13.77;;;8.18;;
24030;SDS011;12240;51.142;22.486;2023-09-19T12:04:43;16.98;;;8.70;;
24030;SDS011;12240;51.142;22.486;2023-09-19T12:07:17;21.00;;;11.02;;
24030;SDS011;12240;51.142;22.486;2023-09-19T12:09:47;24.38;;;10.93;;
24030;SDS011;12240;51.142;22.486;2023-09-19T12:12:24;20.05;;;9.63;;
24030;SDS011;12240;51.142;22.486;2023-09-19T12:14:54;16.65;;;8.48;;
24030;SDS011;12240;51.142;22.486;2023-09-19T12:17:39;14.57;;;9.02;;
24030;SDS011;12240;51.142;22.486;2023-09-19T12:20:10;14.02;;;8.43;;
24030;SDS011;12240;51.142;22.486;2023-09-19T12:25:10;16.67;;;9.25;;
24030;SDS011;12240;51.142;22.486;2023-09-19T12:27:44;15.68;;;9.38;;
24030;SDS011;12240;51.142;22.486;2023-09-19T12:30:15;15.43;;;9.00;;
24030;SDS011;12240;51.142;22.486;2023-09-19T12:32:54;17.73;;;9.40;;
24030;SDS011;12240;51.142;22.486;2023-09-19T12:38:03;13.70;;;8.15;;
24030;SDS011;12240;51.142;22.486;2023-09-19T12:40:31;15.88;;;8.63;;
24030;SDS011;12240;51.142;22.486;2023-09-19T12:45:32;13.77;;;8.25;;
24030;SDS011;12240;51.142;22.486;2023-09-19T12:51:05;11.80;;;7.43;;
24030;SDS011;12240;51.142;22.486;2023-09-19T12:53:44;14.70;;;8.55;;
24030;SDS011;12240;51.142;22.486;2023-09-19T12:56:18;12.73;;;7.85;;
24030;SDS011;12240;51.142;22.486;2023-09-19T12:58:52;11.85;;;7.20;;
24030;SDS011;12240;51.142;22.486;2023-09-19T13:01:30;13.40;;;7.72;;
24030;SDS011;12240;51.142;22.486;2023-09-19T13:04:18;15.57;;;8.55;;
24030;SDS011;12240;51.142;22.486;2023-09-19T13:06:57;11.95;;;8.35;;
24030;SDS011;12240;51.142;22.486;2023-09-19T13:09:29;14.35;;;8.75;;
24030;SDS011;12240;51.142;22.486;2023-09-19T13:12:03;13.18;;;7.68;;
24030;SDS011;12240;51.142;22.486;2023-09-19T13:14:35;13.90;;;8.65;;
24030;SDS011;12240;51.142;22.486;2023-09-19T13:17:12;14.65;;;8.85;;
24030;SDS011;12240;51.142;22.486;2023-09-19T13:22:37;11.52;;;8.35;;
24030;SDS011;12240;51.142;22.486;2023-09-19T13:25:12;13.02;;;8.23;;
24030;SDS011;12240;51.142;22.486;2023-09-19T13:27:47;15.15;;;8.55;;
24030;SDS011;12240;51.142;22.486;2023-09-19T13:30:25;13.00;;;8.60;;
24030;SDS011;12240;51.142;22.486;2023-09-19T13:33:04;13.85;;;8.15;;
24030;SDS011;12240;51.142;22.486;2023-09-19T13:35:35;13.77;;;8.00;;
24030;SDS011;12240;51.142;22.486;2023-09-19T13:38:05;11.45;;;7.72;;
24030;SDS011;12240;51.142;22.486;2023-09-19T13:40:39;14.25;;;8.07;;
24030;SDS011;12240;51.142;22.486;2023-09-19T13:43:09;13.95;;;9.05;;
24030;SDS011;12240;51.142;22.486;2023-09-19T13:45:39;14.07;;;8.43;;
24030;SDS011;12240;51.142;22.486;2023-09-19T13:48:10;13.85;;;7.93;;
24030;SDS011;12240;51.142;22.486;2023-09-19T13:50:41;13.15;;;8.07;;
24030;SDS011;12240;51.142;22.486;2023-09-19T13:53:10;15.60;;;9.43;;
24030;SDS011;12240;51.142;22.486;2023-09-19T13:55:39;11.70;;;8.43;;
24030;SDS011;12240;51.142;22.486;2023-09-19T13:58:08;17.45;;;8.57;;
24030;SDS011;12240;51.142;22.486;2023-09-19T14:00:38;13.50;;;8.18;;
24030;SDS011;12240;51.142;22.486;2023-09-19T14:03:06;11.90;;;8.07;;
24030;SDS011;12240;51.142;22.486;2023-09-19T14:05:35;14.32;;;8.50;;
24030;SDS011;12240;51.142;22.486;2023-09-19T14:08:04;12.57;;;8.50;;
24030;SDS011;12240;51.142;22.486;2023-09-19T14:10:32;16.63;;;8.27;;
24030;SDS011;12240;51.142;22.486;2023-09-19T14:13:02;11.65;;;8.40;;
24030;SDS011;12240;51.142;22.486;2023-09-19T14:15:30;11.45;;;8.10;;
24030;SDS011;12240;51.142;22.486;2023-09-19T14:17:59;10.40;;;7.57;;
24030;SDS011;12240;51.142;22.486;2023-09-19T14:20:28;11.15;;;7.95;;
24030;SDS011;12240;51.142;22.486;2023-09-19T14:22:58;10.80;;;7.97;;
24030;SDS011;12240;51.142;22.486;2023-09-19T14:25:27;10.02;;;7.55;;
24030;SDS011;12240;51.142;22.486;2023-09-19T14:27:57;12.60;;;7.80;;
24030;SDS011;12240;51.142;22.486;2023-09-19T14:30:26;10.13;;;7.43;;
24030;SDS011;12240;51.142;22.486;2023-09-19T14:32:55;9.07;;;6.45;;
24030;SDS011;12240;51.142;22.486;2023-09-19T14:35:26;8.30;;;6.17;;
24030;SDS011;12240;51.142;22.486;2023-09-19T14:37:53;9.15;;;6.10;;
24030;SDS011;12240;51.142;22.486;2023-09-19T14:40:22;10.35;;;6.25;;
24030;SDS011;12240;51.142;22.486;2023-09-19T14:42:50;10.10;;;6.03;;
24030;SDS011;12240;51.142;22.486;2023-09-19T14:45:19;8.13;;;6.13;;
24030;SDS011;12240;51.142;22.486;2023-09-19T14:47:48;7.65;;;5.50;;
24030;SDS011;12240;51.142;22.486;2023-09-19T14:50:22;9.82;;;5.68;;
24030;SDS011;12240;51.142;22.486;2023-09-19T14:52:51;7.47;;;5.32;;
24030;SDS011;12240;51.142;22.486;2023-09-19T14:58:30;8.82;;;6.20;;
24030;SDS011;12240;51.142;22.486;2023-09-19T15:01:05;9.30;;;6.35;;
24030;SDS011;12240;51.142;22.486;2023-09-19T15:03:37;8.88;;;6.70;;
24030;SDS011;12240;51.142;22.486;2023-09-19T15:06:08;11.15;;;6.72;;
24030;SDS011;12240;51.142;22.486;2023-09-19T15:08:47;11.15;;;6.55;;
24030;SDS011;12240;51.142;22.486;2023-09-19T15:11:19;10.70;;;6.75;;
24030;SDS011;12240;51.142;22.486;2023-09-19T15:13:47;10.80;;;7.05;;
24030;SDS011;12240;51.142;22.486;2023-09-19T15:16:21;10.93;;;7.47;;
24030;SDS011;12240;51.142;22.486;2023-09-19T15:18:49;12.23;;;7.35;;
24030;SDS011;12240;51.142;22.486;2023-09-19T15:21:19;16.35;;;10.63;;
24030;SDS011;12240;51.142;22.486;2023-09-19T15:23:48;16.35;;;10.05;;
24030;SDS011;12240;51.142;22.486;2023-09-19T15:26:16;16.40;;;9.30;;
24030;SDS011;12240;51.142;22.486;2023-09-19T15:28:49;13.02;;;6.38;;
24030;SDS011;12240;51.142;22.486;2023-09-19T15:31:17;10.52;;;6.45;;
24030;SDS011;12240;51.142;22.486;2023-09-19T15:33:46;10.30;;;5.10;;
24030;SDS011;12240;51.142;22.486;2023-09-19T15:36:14;9.18;;;4.13;;
24030;SDS011;12240;51.142;22.486;2023-09-19T15:39:02;4.80;;;3.40;;
24030;SDS011;12240;51.142;22.486;2023-09-19T15:41:39;7.60;;;3.13;;
24030;SDS011;12240;51.142;22.486;2023-09-19T15:44:13;8.82;;;4.10;;
24030;SDS011;12240;51.142;22.486;2023-09-19T15:46:44;9.13;;;4.00;;
24030;SDS011;12240;51.142;22.486;2023-09-19T15:49:14;12.77;;;4.72;;
24030;SDS011;12240;51.142;22.486;2023-09-19T15:51:42;12.68;;;5.40;;
24030;SDS011;12240;51.142;22.486;2023-09-19T15:54:12;14.70;;;6.28;;
24030;SDS011;12240;51.142;22.486;2023-09-19T15:56:44;14.73;;;6.38;;
24030;SDS011;12240;51.142;22.486;2023-09-19T15:59:17;16.30;;;7.13;;
24030;SDS011;12240;51.142;22.486;2023-09-19T16:01:46;21.58;;;8.15;;
24030;SDS011;12240;51.142;22.486;2023-09-19T16:04:14;16.25;;;8.07;;
24030;SDS011;12240;51.142;22.486;2023-09-19T16:06:44;16.70;;;8.52;;
24030;SDS011;12240;51.142;22.486;2023-09-19T16:09:12;18.55;;;9.20;;